Time;durP1;ratioP1;P1;durP2;ratioP2;P2;SDS_P1;SDS_P2;PMS_P1;PMS_P2;Temp;Humidity;BMP_temperature;BMP_pressure;BME280_temperature;BME280_humidity;BME280_pressure;Samples;Min_cycle;Max_cycle;Signal;HPM_P1;HPM_P2
2023/10/17 00:02:53;;;;;;;2.10;0.93;;;;;;;;;;12852024;23;20567;-76
2023/10/17 00:07:58;;;;;;;1.38;1.20;;;;;;;;;;12855334;23;20478;-76
2023/10/17 00:13:18;;;;;;;1.65;1.48;;;;;;;;;;12853004;23;20028;-76
2023/10/17 00:18:25;;;;;;;1.73;1.00;;;;;;;;;;12790687;23;20038;-78
2023/10/17 00:23:32;;;;;;;2.40;1.30;;;;;;;;;;12810203;23;20024;-76
2023/10/17 00:28:37;;;;;;;1.65;1.45;;;;;;;;;;12790613;23;20025;-76
2023/10/17 00:33:41;;;;;;;2.20;1.48;;;;;;;;;;12764038;23;20021;-77
2023/10/17 00:38:46;;;;;;;3.90;1.43;;;;;;;;;;12763738;23;20088;-76
2023/10/17 00:43:53;;;;;;;3.40;2.20;;;;;;;;;;12815577;23;20252;-77
2023/10/17 00:48:57;;;;;;;3.08;2.10;;;;;;;;;;12851113;23;20027;-77
2023/10/17 00:54:01;;;;;;;3.90;1.90;;;;;;;;;;12869953;23;20024;-77
2023/10/17 00:59:08;;;;;;;1.90;1.58;;;;;;;;;;12849748;23;20028;-77
2023/10/17 01:04:14;;;;;;;1.80;1.30;;;;;;;;;;12870625;23;20103;-77
2023/10/17 01:09:18;;;;;;;1.25;1.02;;;;;;;;;;12869448;23;20020;-77
2023/10/17 01:14:23;;;;;;;2.67;1.23;;;;;;;;;;12852297;23;20032;-77
2023/10/17 01:19:27;;;;;;;2.27;1.77;;;;;;;;;;12850569;23;20020;-77
2023/10/17 01:24:34;;;;;;;3.10;1.67;;;;;;;;;;12850383;23;20075;-76
2023/10/17 01:29:38;;;;;;;2.20;1.60;;;;;;;;;;12866183;23;20020;-76
2023/10/17 01:34:42;;;;;;;2.03;1.67;;;;;;;;;;12850612;23;20028;-76
2023/10/17 01:39:47;;;;;;;2.13;1.38;;;;;;;;;;12849604;23;20333;-76
2023/10/17 01:44:51;;;;;;;2.25;1.20;;;;;;;;;;12861510;23;20054;-77
2023/10/17 01:49:57;;;;;;;1.98;1.35;;;;;;;;;;12824822;23;20016;-76
2023/10/17 01:55:08;;;;;;;1.88;1.27;;;;;;;;;;12850361;23;20028;-76
2023/10/17 02:00:23;;;;;;;1.67;1.48;;;;;;;;;;12848220;23;20329;-77
2023/10/17 02:05:28;;;;;;;2.08;1.52;;;;;;;;;;12850445;23;20028;-77
2023/10/17 02:10:33;;;;;;;1.55;1.38;;;;;;;;;;12848759;23;20540;-76
2023/10/17 02:15:38;;;;;;;2.45;1.27;;;;;;;;;;12848370;23;20025;-76
2023/10/17 02:20:48;;;;;;;2.00;1.52;;;;;;;;;;12824248;23;20456;-77
2023/10/17 02:25:54;;;;;;;1.05;0.95;;;;;;;;;;12859833;23;20024;-77
2023/10/17 02:30:59;;;;;;;1.73;1.20;;;;;;;;;;12859729;23;20024;-77
2023/10/17 02:36:08;;;;;;;2.03;1.17;;;;;;;;;;12859879;23;20408;-77
2023/10/17 02:41:18;;;;;;;1.95;1.25;;;;;;;;;;12848324;23;20021;-77
2023/10/17 02:46:26;;;;;;;1.48;1.27;;;;;;;;;;12849185;23;20103;-76
2023/10/17 02:51:33;;;;;;;1.40;1.20;;;;;;;;;;12848889;23;20075;-77
2023/10/17 02:56:46;;;;;;;1.73;1.27;;;;;;;;;;12856609;23;20669;-77
2023/10/17 03:01:53;;;;;;;1.77;1.38;;;;;;;;;;12848285;23;20020;-76
2023/10/17 03:06:59;;;;;;;1.73;1.27;;;;;;;;;;12848757;23;20028;-77
2023/10/17 03:12:09;;;;;;;1.05;0.95;;;;;;;;;;12854939;23;20028;-76
2023/10/17 03:17:15;;;;;;;1.40;1.15;;;;;;;;;;12849157;23;20024;-76
2023/10/17 03:22:19;;;;;;;1.23;1.13;;;;;;;;;;12848895;23;20115;-77
2023/10/17 03:27:27;;;;;;;1.48;1.00;;;;;;;;;;12851890;23;20575;-76
2023/10/17 03:32:31;;;;;;;1.70;1.23;;;;;;;;;;12857716;23;20507;-76
2023/10/17 03:37:38;;;;;;;1.10;1.00;;;;;;;;;;12852655;23;20025;-76
2023/10/17 03:42:46;;;;;;;1.33;1.00;;;;;;;;;;12852203;23;20032;-76
2023/10/17 03:47:53;;;;;;;1.63;1.30;;;;;;;;;;12856464;23;20076;-77
2023/10/17 03:52:57;;;;;;;1.30;1.13;;;;;;;;;;12851763;23;20036;-77
2023/10/17 03:58:08;;;;;;;2.78;1.15;;;;;;;;;;12852610;23;20479;-77
2023/10/17 04:03:19;;;;;;;2.72;1.67;;;;;;;;;;12854397;23;20060;-77
2023/10/17 04:08:26;;;;;;;4.22;1.80;;;;;;;;;;12854244;23;20116;-78
2023/10/17 04:13:35;;;;;;;2.50;1.73;;;;;;;;;;12872896;23;20009;-77
2023/10/17 04:18:38;;;;;;;2.42;1.60;;;;;;;;;;12853773;23;20027;-77
2023/10/17 04:23:42;;;;;;;1.92;1.35;;;;;;;;;;12851447;23;20100;-77
2023/10/17 04:28:49;;;;;;;1.67;1.27;;;;;;;;;;12871103;23;20083;-77
2023/10/17 04:34:05;;;;;;;1.77;1.27;;;;;;;;;;12871778;23;20334;-77
2023/10/17 04:39:18;;;;;;;1.50;1.40;;;;;;;;;;12870034;23;20028;-76
2023/10/17 04:44:25;;;;;;;2.00;1.50;;;;;;;;;;12850899;23;20024;-77
2023/10/17 04:49:30;;;;;;;1.80;1.30;;;;;;;;;;12869298;23;20337;-76
2023/10/17 04:54:41;;;;;;;2.15;1.38;;;;;;;;;;12853708;23;20030;-77
2023/10/17 04:59:55;;;;;;;2.45;1.40;;;;;;;;;;12850743;23;20112;-76
2023/10/17 06:20:27;;;;;;;1.83;1.40;;;;;;;;;;12848760;23;20028;-77
2023/10/17 06:31:34;;;;;;;2.47;1.88;;;;;;;;;;12839428;23;20429;-77
2023/10/17 06:36:40;;;;;;;3.00;2.08;;;;;;;;;;12851429;23;20119;-77
2023/10/17 06:41:45;;;;;;;3.97;2.13;;;;;;;;;;12850961;23;20021;-77
2023/10/17 06:46:55;;;;;;;2.88;1.88;;;;;;;;;;12855943;23;20028;-77
2023/10/17 06:52:19;;;;;;;4.70;2.58;;;;;;;;;;12848082;23;20464;-77
2023/10/17 06:57:23;;;;;;;7.07;3.88;;;;;;;;;;12847098;23;20455;-77
2023/10/17 07:02:28;;;;;;;11.77;5.38;;;;;;;;;;12853354;23;20103;-77
2023/10/17 07:07:39;;;;;;;12.33;4.97;;;;;;;;;;12858308;23;20036;-77
2023/10/17 07:12:47;;;;;;;11.63;4.80;;;;;;;;;;12853068;23;20087;-77
2023/10/17 07:18:39;;;;;;;8.25;3.80;;;;;;;;;;12854898;23;20071;-77
2023/10/17 07:23:19;;;;;;;7.35;3.35;;;;;;;;;;12854151;23;20448;-77
2023/10/17 07:28:22;;;;;;;6.10;3.35;;;;;;;;;;12875182;23;20498;-78
2023/10/17 07:33:26;;;;;;;4.97;2.67;;;;;;;;;;12874589;23;20016;-77
2023/10/17 07:38:31;;;;;;;5.70;2.63;;;;;;;;;;12853727;23;20040;-78
2023/10/17 07:43:35;;;;;;;6.60;2.92;;;;;;;;;;12891391;22;20012;-79
2023/10/17 07:48:38;;;;;;;4.38;2.60;;;;;;;;;;12918952;23;20027;-78
2023/10/17 07:53:46;;;;;;;3.63;2.20;;;;;;;;;;12874792;23;20048;-78
2023/10/17 07:58:57;;;;;;;3.05;2.40;;;;;;;;;;12873409;23;20103;-78
2023/10/17 08:04:13;;;;;;;4.43;1.90;;;;;;;;;;12855662;23;20411;-79
2023/10/17 08:09:24;;;;;;;4.07;2.05;;;;;;;;;;12856579;23;20028;-79
2023/10/17 08:14:41;;;;;;;3.13;2.28;;;;;;;;;;12870768;23;20032;-79
2023/10/17 08:25:13;;;;;;;1.35;1.25;;;;;;;;;;12854335;23;20083;-79
2023/10/17 08:30:23;;;;;;;1.45;1.30;;;;;;;;;;12855577;23;20074;-79
2023/10/17 08:35:39;;;;;;;3.97;1.50;;;;;;;;;;12867241;23;20476;-79
2023/10/17 08:40:44;;;;;;;1.60;1.15;;;;;;;;;;12866605;23;20480;-78
2023/10/17 08:45:50;;;;;;;0.93;0.82;;;;;;;;;;12855203;23;20044;-78
2023/10/17 08:50:55;;;;;;;;;;;;;;;;;;12864519;23;20115;-78
2023/10/17 08:56:02;;;;;;;1.48;1.20;;;;;;;;;;12864401;23;19915;-78
2023/10/17 09:01:10;;;;;;;4.50;2.20;;;;;;;;;;12864052;23;20471;-78
2023/10/17 09:11:34;;;;;;;2.70;1.55;;;;;;;;;;12851183;23;20075;-78
2023/10/17 09:16:42;;;;;;;1.83;1.10;;;;;;;;;;12861444;23;20452;-78
2023/10/17 09:21:47;;;;;;;2.17;1.13;;;;;;;;;;12860397;23;20029;-78
2023/10/17 09:26:51;;;;;;;1.88;0.80;;;;;;;;;;12859872;23;20043;-78
2023/10/17 09:31:55;;;;;;;2.20;1.23;;;;;;;;;;12854441;23;20035;-78
2023/10/17 09:37:04;;;;;;;2.08;1.00;;;;;;;;;;12871062;23;20025;-79
2023/10/17 09:42:08;;;;;;;1.90;0.95;;;;;;;;;;12871064;23;20021;-78
2023/10/17 09:47:14;;;;;;;3.58;1.02;;;;;;;;;;12855972;23;20029;-78
2023/10/17 09:52:20;;;;;;;1.67;1.20;;;;;;;;;;12858076;23;20029;-78
2023/10/17 09:57:25;;;;;;;1.23;1.13;;;;;;;;;;12857618;23;20456;-79
2023/10/17 10:02:31;;;;;;;1.90;1.43;;;;;;;;;;12855424;23;20100;-79
2023/10/17 10:07:34;;;;;;;2.97;1.23;;;;;;;;;;12855557;23;20033;-78
2023/10/17 10:13:06;;;;;;;1.48;1.13;;;;;;;;;;12853878;23;20021;-76
2023/10/17 10:18:09;;;;;;;2.08;1.00;;;;;;;;;;12851054;23;20024;-76
2023/10/17 10:23:13;;;;;;;2.20;1.15;;;;;;;;;;12850678;23;20524;-78
2023/10/17 10:28:29;;;;;;;2.72;1.20;;;;;;;;;;12849721;23;20024;-78
2023/10/17 10:33:33;;;;;;;2.80;1.38;;;;;;;;;;12851284;23;20048;-78
2023/10/17 10:38:36;;;;;;;2.55;1.10;;;;;;;;;;12850951;23;20044;-78
2023/10/17 10:43:40;;;;;;;1.88;1.20;;;;;;;;;;12869631;23;20103;-78
2023/10/17 10:48:47;;;;;;;2.25;1.30;;;;;;;;;;12851705;23;20024;-78
2023/10/17 10:53:56;;;;;;;1.73;1.40;;;;;;;;;;12869545;23;20399;-78
2023/10/17 10:59:02;;;;;;;2.88;1.40;;;;;;;;;;12853649;23;20020;-78
2023/10/17 11:04:07;;;;;;;1.85;1.25;;;;;;;;;;12868094;23;20527;-76
2023/10/17 11:09:16;;;;;;;1.93;1.17;;;;;;;;;;12851021;23;20021;-78
2023/10/17 11:14:21;;;;;;;2.17;1.20;;;;;;;;;;12866393;23;20942;-79
2023/10/17 11:19:25;;;;;;;2.13;1.27;;;;;;;;;;12854626;23;20052;-78
2023/10/17 11:24:29;;;;;;;1.65;1.17;;;;;;;;;;12867200;23;20100;-78
2023/10/17 11:29:35;;;;;;;1.67;1.45;;;;;;;;;;12857823;23;20032;-79
2023/10/17 11:34:38;;;;;;;3.80;1.90;;;;;;;;;;12867047;23;20540;-79
2023/10/17 11:39:42;;;;;;;3.88;2.17;;;;;;;;;;12848113;23;20024;-76
2023/10/17 11:44:47;;;;;;;2.45;1.88;;;;;;;;;;12850357;23;20020;-79
2023/10/17 11:49:52;;;;;;;2.63;1.60;;;;;;;;;;12870420;23;20029;-78
2023/10/17 11:54:58;;;;;;;2.97;2.00;;;;;;;;;;12870574;23;20108;-78
2023/10/17 12:00:06;;;;;;;5.57;2.63;;;;;;;;;;12869911;23;20675;-78
2023/10/17 12:05:17;;;;;;;3.70;2.40;;;;;;;;;;12854749;23;20027;-78
2023/10/17 12:10:21;;;;;;;4.95;2.97;;;;;;;;;;12867192;23;20464;-78
2023/10/17 12:15:25;;;;;;;5.40;2.83;;;;;;;;;;12856427;23;20258;-77
2023/10/17 12:20:29;;;;;;;4.38;2.63;;;;;;;;;;12856523;23;20411;-78
2023/10/17 12:25:32;;;;;;;4.22;2.70;;;;;;;;;;12866737;23;20104;-77
2023/10/17 12:30:38;;;;;;;3.45;2.17;;;;;;;;;;12867762;23;20376;-78
2023/10/17 12:35:46;;;;;;;3.08;1.92;;;;;;;;;;12857819;23;20029;-78
2023/10/17 12:40:53;;;;;;;2.85;2.00;;;;;;;;;;12867260;23;20043;-78
2023/10/17 12:45:57;;;;;;;2.15;1.30;;;;;;;;;;12868120;23;20636;-78
2023/10/17 12:51:11;;;;;;;2.47;1.52;;;;;;;;;;12866291;23;20087;-78
2023/10/17 12:56:14;;;;;;;2.70;1.48;;;;;;;;;;12865648;23;20088;-78
2023/10/17 13:01:24;;;;;;;2.53;1.40;;;;;;;;;;12865922;23;20100;-78
2023/10/17 13:06:27;;;;;;;2.20;1.70;;;;;;;;;;12863877;23;20029;-78
2023/10/17 13:11:32;;;;;;;2.08;1.30;;;;;;;;;;12863147;23;20077;-77
2023/10/17 13:16:38;;;;;;;1.92;1.02;;;;;;;;;;12863206;23;20036;-78
2023/10/17 13:21:44;;;;;;;1.88;0.98;;;;;;;;;;12861832;23;20135;-78
2023/10/17 13:26:47;;;;;;;2.50;1.00;;;;;;;;;;12862658;23;20035;-78
2023/10/17 13:31:52;;;;;;;1.05;0.80;;;;;;;;;;12865849;23;20051;-78
2023/10/17 13:36:55;;;;;;;1.13;0.88;;;;;;;;;;12860301;23;20021;-78
2023/10/17 13:41:59;;;;;;;0.85;0.70;;;;;;;;;;12869435;22;20031;-77
2023/10/17 13:47:03;;;;;;;1.00;0.80;;;;;;;;;;12898527;22;20083;-76
2023/10/17 13:52:08;;;;;;;3.00;1.10;;;;;;;;;;12856062;23;20052;-77
2023/10/17 13:57:12;;;;;;;2.33;1.00;;;;;;;;;;12851508;23;20543;-77
2023/10/17 14:02:18;;;;;;;0.60;0.60;;;;;;;;;;12855741;23;20091;-77
2023/10/17 14:07:22;;;;;;;;;;;;;;;;;;12851848;23;20040;-77
2023/10/17 14:12:25;;;;;;;1.33;0.70;;;;;;;;;;12853973;23;19916;-77
2023/10/17 14:17:30;;;;;;;2.70;1.52;;;;;;;;;;12853777;23;20024;-77
2023/10/17 14:22:44;;;;;;;4.40;1.60;;;;;;;;;;12852893;23;20099;-77
2023/10/17 14:27:47;;;;;;;2.70;1.58;;;;;;;;;;12851068;23;20408;-76
2023/10/17 14:32:55;;;;;;;1.40;0.90;;;;;;;;;;12852489;23;20463;-77
2023/10/17 14:38:00;;;;;;;0.90;0.70;;;;;;;;;;12851018;23;20024;-77
2023/10/17 14:43:08;;;;;;;1.05;0.80;;;;;;;;;;12851995;23;20028;-77
2023/10/17 14:48:13;;;;;;;3.40;1.00;;;;;;;;;;12852322;23;20075;-78
2023/10/17 14:53:19;;;;;;;1.17;0.80;;;;;;;;;;12787032;23;20095;-76
2023/10/17 14:58:23;;;;;;;2.20;1.00;;;;;;;;;;12784255;23;20088;-75
2023/10/17 15:03:30;;;;;;;2.08;0.80;;;;;;;;;;12762087;23;20048;-78
2023/10/17 15:08:34;;;;;;;1.70;0.90;;;;;;;;;;12763691;23;20021;-78
2023/10/17 15:13:37;;;;;;;1.20;0.80;;;;;;;;;;12808805;23;20091;-77
2023/10/17 15:18:43;;;;;;;2.17;1.15;;;;;;;;;;12807962;23;20025;-77
2023/10/17 15:23:46;;;;;;;1.23;0.90;;;;;;;;;;12812500;23;20021;-78
2023/10/17 15:28:50;;;;;;;1.70;1.10;;;;;;;;;;12810619;23;20075;-76
2023/10/17 15:33:55;;;;;;;1.55;0.90;;;;;;;;;;12793066;23;20104;-76
2023/10/17 15:39:00;;;;;;;1.02;0.77;;;;;;;;;;12809451;23;20025;-76
2023/10/17 15:44:03;;;;;;;2.28;0.98;;;;;;;;;;12791855;23;20031;-76
2023/10/17 15:49:09;;;;;;;3.05;1.70;;;;;;;;;;12765431;23;20676;-76
2023/10/17 15:54:13;;;;;;;2.65;1.70;;;;;;;;;;12806317;23;20499;-76
2023/10/17 15:59:17;;;;;;;1.63;0.93;;;;;;;;;;12854323;23;20016;-76
2023/10/17 16:04:22;;;;;;;2.30;1.20;;;;;;;;;;12854644;23;20032;-76
2023/10/17 16:09:27;;;;;;;1.40;0.90;;;;;;;;;;12867737;23;20025;-76
2023/10/17 16:14:31;;;;;;;1.10;0.68;;;;;;;;;;12852081;23;20103;-76
2023/10/17 16:19:35;;;;;;;1.08;0.77;;;;;;;;;;12854316;23;20108;-76
2023/10/17 16:24:40;;;;;;;1.35;0.75;;;;;;;;;;12869269;23;20045;-76
2023/10/17 16:29:44;;;;;;;1.48;1.02;;;;;;;;;;12867810;23;20032;-76
2023/10/17 16:34:49;;;;;;;1.45;1.00;;;;;;;;;;12852095;23;20029;-76
2023/10/17 16:39:53;;;;;;;1.60;1.23;;;;;;;;;;12867677;23;20111;-76
2023/10/17 16:44:57;;;;;;;2.42;1.75;;;;;;;;;;12866786;23;20024;-76
2023/10/17 16:50:01;;;;;;;2.97;1.67;;;;;;;;;;12866381;23;20020;-76
2023/10/17 16:55:06;;;;;;;2.38;1.77;;;;;;;;;;12852319;23;20031;-76
2023/10/17 17:00:13;;;;;;;2.72;1.77;;;;;;;;;;12865919;23;20028;-76
2023/10/17 17:05:18;;;;;;;2.83;1.60;;;;;;;;;;12865123;23;20029;-76
2023/10/17 17:10:21;;;;;;;3.47;2.10;;;;;;;;;;12865015;23;20364;-76
2023/10/17 17:15:26;;;;;;;3.40;2.22;;;;;;;;;;12853346;23;20016;-76
2023/10/17 17:20:33;;;;;;;4.90;2.10;;;;;;;;;;12864317;23;20028;-76
2023/10/17 17:25:40;;;;;;;3.22;2.20;;;;;;;;;;12863899;23;20103;-76
2023/10/17 17:30:45;;;;;;;4.30;2.58;;;;;;;;;;12861523;23;20036;-76
2023/10/17 17:35:50;;;;;;;4.25;2.85;;;;;;;;;;12853071;23;20025;-76
2023/10/17 17:40:54;;;;;;;6.30;3.05;;;;;;;;;;12862309;23;20071;-76
2023/10/17 17:45:57;;;;;;;4.88;3.35;;;;;;;;;;12860840;23;20040;-76
2023/10/17 17:51:03;;;;;;;8.13;3.78;;;;;;;;;;12849908;23;20039;-76
2023/10/17 17:56:08;;;;;;;5.40;3.75;;;;;;;;;;12852159;23;20021;-76
2023/10/17 18:01:12;;;;;;;8.13;3.83;;;;;;;;;;12850512;23;20051;-76
2023/10/17 18:06:17;;;;;;;5.50;3.65;;;;;;;;;;12859662;23;20021;-76
2023/10/17 18:11:21;;;;;;;5.07;3.38;;;;;;;;;;12858954;23;20037;-76
2023/10/17 18:16:24;;;;;;;8.57;4.90;;;;;;;;;;12858849;23;20099;-75
2023/10/17 18:21:29;;;;;;;9.82;5.45;;;;;;;;;;12858115;23;20412;-76
2023/10/17 18:26:33;;;;;;;8.70;5.60;;;;;;;;;;12854741;23;20729;-76
2023/10/17 18:31:39;;;;;;;9.85;5.88;;;;;;;;;;12848308;23;20024;-76
2023/10/17 18:36:44;;;;;;;9.70;6.03;;;;;;;;;;12856340;23;20024;-76
2023/10/17 18:41:49;;;;;;;8.57;5.55;;;;;;;;;;12848578;23;20028;-76
2023/10/17 18:46:54;;;;;;;7.75;3.97;;;;;;;;;;12856020;23;20133;-76
2023/10/17 18:51:58;;;;;;;4.30;2.78;;;;;;;;;;12846386;23;20020;-76
2023/10/17 18:57:02;;;;;;;3.58;2.40;;;;;;;;;;12854306;23;20372;-76
2023/10/17 19:02:06;;;;;;;2.75;1.88;;;;;;;;;;12853525;23;20082;-76
2023/10/17 19:07:12;;;;;;;2.92;1.90;;;;;;;;;;12854303;23;20100;-76
2023/10/17 19:12:15;;;;;;;3.45;2.05;;;;;;;;;;12846900;23;20472;-77
2023/10/17 19:17:18;;;;;;;2.90;2.25;;;;;;;;;;12854083;23;20045;-76
2023/10/17 19:22:23;;;;;;;3.72;2.55;;;;;;;;;;12851713;23;20413;-75
2023/10/17 19:27:26;;;;;;;3.53;2.28;;;;;;;;;;12858196;23;20021;-78
2023/10/17 19:32:30;;;;;;;5.38;2.97;;;;;;;;;;12873699;23;20031;-76
2023/10/17 19:37:34;;;;;;;5.95;3.28;;;;;;;;;;12851900;23;20084;-77
2023/10/17 19:42:38;;;;;;;2.72;2.20;;;;;;;;;;12849276;23;20078;-77
2023/10/17 19:47:41;;;;;;;2.90;1.92;;;;;;;;;;12851739;23;20020;-77
2023/10/17 19:52:46;;;;;;;3.63;2.60;;;;;;;;;;12849248;23;20024;-78
2023/10/17 19:57:52;;;;;;;4.43;2.47;;;;;;;;;;12850871;23;20055;-77
2023/10/17 20:02:56;;;;;;;5.00;2.70;;;;;;;;;;12848546;23;20395;-77
2023/10/17 20:08:01;;;;;;;4.10;2.70;;;;;;;;;;12852895;23;20020;-77
2023/10/17 20:13:04;;;;;;;3.80;2.42;;;;;;;;;;12851359;23;20051;-76
2023/10/17 20:18:08;;;;;;;4.50;2.60;;;;;;;;;;12853397;23;20017;-78
2023/10/17 20:23:13;;;;;;;4.40;2.40;;;;;;;;;;12849631;23;20040;-78
2023/10/17 20:28:16;;;;;;;3.60;2.58;;;;;;;;;;12853391;23;20028;-78
2023/10/17 20:33:19;;;;;;;3.65;2.42;;;;;;;;;;12871369;23;20024;-78
2023/10/17 20:38:24;;;;;;;3.58;2.33;;;;;;;;;;12851441;23;20099;-77
2023/10/17 20:43:30;;;;;;;4.55;2.65;;;;;;;;;;12848820;23;20028;-76
2023/10/17 20:48:34;;;;;;;;;;;;;;;;;;12871369;23;20079;-76
2023/10/17 20:53:38;;;;;;;3.72;2.45;;;;;;;;;;12851514;23;19969;-76
2023/10/17 20:58:42;;;;;;;3.88;2.40;;;;;;;;;;12871574;23;20096;-76
2023/10/17 21:03:46;;;;;;;4.82;2.80;;;;;;;;;;12871825;23;20794;-76
2023/10/17 21:08:51;;;;;;;4.65;2.65;;;;;;;;;;12853808;23;20022;-76
2023/10/17 21:13:54;;;;;;;4.15;2.70;;;;;;;;;;12870487;23;20037;-76
2023/10/17 21:18:58;;;;;;;3.95;2.40;;;;;;;;;;12850560;23;20112;-76
2023/10/17 21:24:02;;;;;;;2.97;1.83;;;;;;;;;;12849289;23;20116;-75
2023/10/17 21:29:06;;;;;;;4.60;2.38;;;;;;;;;;12849553;23;20099;-76
2023/10/17 21:34:09;;;;;;;3.72;2.13;;;;;;;;;;12851932;23;20536;-76
2023/10/17 21:39:16;;;;;;;1.77;1.50;;;;;;;;;;12853101;23;20044;-76
2023/10/17 21:44:19;;;;;;;2.88;2.10;;;;;;;;;;12851937;23;20116;-76
2023/10/17 21:49:22;;;;;;;2.40;1.80;;;;;;;;;;12852314;23;20532;-76
2023/10/17 21:54:27;;;;;;;2.13;1.67;;;;;;;;;;12867199;23;20104;-76
2023/10/17 21:59:30;;;;;;;3.55;2.20;;;;;;;;;;12850332;23;20108;-76
2023/10/17 22:04:34;;;;;;;2.60;1.73;;;;;;;;;;12866402;23;20024;-76
2023/10/17 22:09:40;;;;;;;4.05;2.05;;;;;;;;;;12852311;23;20112;-76
2023/10/17 22:14:43;;;;;;;3.88;2.10;;;;;;;;;;12865374;23;20100;-76
2023/10/17 22:19:47;;;;;;;2.60;1.70;;;;;;;;;;12865437;23;20028;-76
2023/10/17 22:24:51;;;;;;;3.05;1.90;;;;;;;;;;12865539;23;20483;-76
2023/10/17 22:29:57;;;;;;;3.47;2.08;;;;;;;;;;12864168;23;20033;-76
2023/10/17 22:35:00;;;;;;;5.07;2.42;;;;;;;;;;12862951;23;20063;-76
2023/10/17 22:40:11;;;;;;;4.72;2.45;;;;;;;;;;12849757;23;20025;-76
2023/10/17 22:45:15;;;;;;;5.80;2.90;;;;;;;;;;12848732;23;20020;-76
2023/10/17 22:50:18;;;;;;;4.60;2.35;;;;;;;;;;12851040;23;20071;-76
2023/10/17 22:55:23;;;;;;;5.03;2.28;;;;;;;;;;12851729;23;20472;-76
2023/10/17 23:00:27;;;;;;;3.35;2.28;;;;;;;;;;12851288;23;20100;-76
2023/10/17 23:05:30;;;;;;;3.17;2.20;;;;;;;;;;12849507;23;20048;-76
2023/10/17 23:10:35;;;;;;;3.55;2.40;;;;;;;;;;12849835;23;20060;-76
2023/10/17 23:15:39;;;;;;;3.50;2.10;;;;;;;;;;12859851;23;20099;-76
2023/10/17 23:20:44;;;;;;;4.18;1.90;;;;;;;;;;12848472;23;20041;-76
2023/10/17 23:25:48;;;;;;;2.40;1.70;;;;;;;;;;12849703;23;20091;-77
2023/10/17 23:30:52;;;;;;;4.15;1.90;;;;;;;;;;12848057;23;20104;-76
2023/10/17 23:35:55;;;;;;;2.47;1.80;;;;;;;;;;12849550;23;20201;-77
2023/10/17 23:41:00;;;;;;;2.67;1.63;;;;;;;;;;12851948;23;20028;-76
2023/10/17 23:46:03;;;;;;;2.53;1.55;;;;;;;;;;12863248;23;20468;-76
2023/10/17 23:51:07;;;;;;;2.50;1.83;;;;;;;;;;12862943;23;20044;-76
2023/10/17 23:56:13;;;;;;;2.17;1.70;;;;;;;;;;12853009;23;20103;-76
